Time;durP1;ratioP1;P1;durP2;ratioP2;P2;SDS_P1;SDS_P2;PMS_P1;PMS_P2;Temp;Humidity;BMP_temperature;BMP_pressure;BME280_temperature;BME280_humidity;BME280_pressure;Samples;Min_cycle;Max_cycle;Signal;HPM_P1;HPM_P2
2023/07/29 00:01:57;;;;;;;0.10;0.10;;;;;;;20.89;60.43;100944.22;5016955;28;20029;-85
2023/07/29 00:04:23;;;;;;;0.10;0.10;;;;;;;21.02;60.00;100951.03;5033428;28;20036;-84
2023/07/29 00:06:48;;;;;;;0.10;0.10;;;;;;;21.00;59.71;100947.72;5016816;28;20036;-85
2023/07/29 00:09:13;;;;;;;0.10;0.10;;;;;;;20.87;60.49;100955.84;5051198;28;20301;-84
2023/07/29 00:11:39;;;;;;;0.10;0.10;;;;;;;20.82;60.49;100950.97;4999993;28;20116;-84
2023/07/29 00:14:04;;;;;;;0.10;0.10;;;;;;;20.88;60.67;100954.88;5000459;28;20032;-86
2023/07/29 00:16:30;;;;;;;0.10;0.10;;;;;;;20.86;60.46;100952.38;5016346;28;20453;-85
2023/07/29 00:18:55;;;;;;;0.10;0.10;;;;;;;20.71;60.68;100947.63;5000470;28;20032;-85
2023/07/29 00:21:21;;;;;;;0.10;0.10;;;;;;;20.60;61.35;100953.81;5016693;28;20416;-85
2023/07/29 00:23:46;;;;;;;0.10;0.10;;;;;;;20.64;60.86;100963.06;5016575;28;20102;-84
2023/07/29 00:26:12;;;;;;;0.10;0.10;;;;;;;20.52;60.90;100959.69;5016554;28;20029;-85
2023/07/29 00:28:37;;;;;;;0.10;0.10;;;;;;;20.55;60.75;100953.34;5000300;28;20037;-84
2023/07/29 00:31:03;;;;;;;0.10;0.10;;;;;;;20.40;61.15;100944.13;5016081;28;20071;-85
2023/07/29 00:33:28;;;;;;;0.10;0.10;;;;;;;20.29;61.44;100947.66;5033110;28;20033;-84
2023/07/29 00:35:53;;;;;;;0.10;0.10;;;;;;;20.36;61.43;100953.25;5000193;28;20029;-84
2023/07/29 00:38:19;;;;;;;0.20;0.20;;;;;;;20.26;61.58;100943.50;5033014;28;20041;-85
2023/07/29 00:40:44;;;;;;;0.10;0.10;;;;;;;20.30;61.62;100951.97;5050736;28;20020;-84
2023/07/29 00:43:10;;;;;;;0.10;0.10;;;;;;;20.27;61.81;100950.44;5032976;28;20028;-84
2023/07/29 00:45:35;;;;;;;0.10;0.10;;;;;;;20.25;62.48;100948.88;5032513;28;20502;-84
2023/07/29 00:48:01;;;;;;;0.10;0.10;;;;;;;20.29;62.04;100942.41;5016362;28;20058;-85
2023/07/29 00:50:29;;;;;;;0.17;0.17;;;;;;;20.18;61.60;100924.09;5016392;28;20505;-85
2023/07/29 00:52:55;;;;;;;0.10;0.10;;;;;;;20.12;62.52;100945.63;5017535;28;20070;-85
2023/07/29 00:55:21;;;;;;;0.10;0.10;;;;;;;20.19;62.19;100946.78;5000069;28;20029;-84
2023/07/29 00:57:48;;;;;;;0.10;0.10;;;;;;;20.30;61.92;100950.16;5016316;28;20025;-84
2023/07/29 01:00:15;;;;;;;0.10;0.10;;;;;;;20.25;61.91;100947.06;5016897;28;20028;-84
2023/07/29 01:02:40;;;;;;;0.10;0.10;;;;;;;20.29;61.17;100943.25;5054328;28;20025;-85
2023/07/29 01:05:06;;;;;;;0.10;0.10;;;;;;;20.17;61.04;100933.78;5036857;28;20044;-84
2023/07/29 01:08:00;;;;;;;0.10;0.10;;;;;;;20.05;61.50;100932.16;5003879;28;20036;-84
2023/07/29 01:11:12;;;;;;;0.10;0.10;;;;;;;20.05;61.63;100934.78;5054214;28;20022;-84
2023/07/29 01:13:44;;;;;;;0.10;0.10;;;;;;;19.82;61.64;100936.72;5032708;28;20090;-84
2023/07/29 01:16:26;;;;;;;0.10;0.10;;;;;;;19.70;62.49;100927.22;5020330;28;20033;-86
2023/07/29 01:18:51;;;;;;;0.10;0.10;;;;;;;19.82;62.83;100933.25;5020520;28;20027;-85
2023/07/29 01:21:17;;;;;;;0.10;0.10;;;;;;;19.59;62.56;100901.88;5019912;28;20046;-85
2023/07/29 01:23:42;;;;;;;0.10;0.10;;;;;;;19.81;62.57;100921.91;5019827;28;20032;-85
2023/07/29 01:26:08;;;;;;;0.10;0.10;;;;;;;19.85;63.11;100943.50;5003656;28;20025;-84
2023/07/29 01:28:33;;;;;;;0.10;0.10;;;;;;;19.84;62.83;100931.31;5019852;28;20446;-85
2023/07/29 01:31:20;;;;;;;0.10;0.10;;;;;;;19.91;62.00;100935.13;5003441;28;20090;-85
2023/07/29 01:33:50;;;;;;;0.10;0.10;;;;;;;19.84;61.75;100926.91;5036151;28;20025;-85
2023/07/29 01:36:22;;;;;;;0.10;0.10;;;;;;;19.84;61.76;100926.91;5003615;28;20033;-85
2023/07/29 01:38:47;;;;;;;0.10;0.10;;;;;;;19.91;61.61;100940.38;5004355;28;20029;-84
2023/07/29 01:41:13;;;;;;;0.10;0.10;;;;;;;19.94;61.59;100938.31;5003421;28;20040;-85
2023/07/29 01:43:41;;;;;;;0.10;0.10;;;;;;;19.85;61.62;100938.25;5019391;28;20025;-84
2023/07/29 01:46:07;;;;;;;0.10;0.10;;;;;;;19.81;61.49;100937.69;5020562;28;20061;-84
2023/07/29 01:48:32;;;;;;;0.10;0.10;;;;;;;19.83;61.67;100945.41;5019494;28;20028;-85
2023/07/29 01:50:58;;;;;;;0.10;0.10;;;;;;;19.78;61.53;100932.69;5019538;28;20036;-85
2023/07/29 01:53:23;;;;;;;0.10;0.10;;;;;;;19.78;62.09;100958.94;5035996;28;20031;-85
2023/07/29 01:55:49;;;;;;;0.10;0.10;;;;;;;19.76;62.44;100955.59;5019546;28;20044;-84
2023/07/29 01:58:14;;;;;;;0.10;0.10;;;;;;;19.77;62.34;100960.72;5002804;28;20041;-85
2023/07/29 02:00:40;;;;;;;0.10;0.10;;;;;;;19.76;61.91;100956.44;5003022;28;20029;-84
2023/07/29 02:03:05;;;;;;;0.10;0.10;;;;;;;19.81;61.97;100968.34;5036110;28;20112;-84
2023/07/29 02:05:31;;;;;;;0.10;0.10;;;;;;;19.92;61.83;100961.25;5019096;28;20120;-85
2023/07/29 02:07:56;;;;;;;0.10;0.10;;;;;;;19.83;61.80;100955.91;5019288;28;20139;-85
2023/07/29 02:10:22;;;;;;;0.10;0.10;;;;;;;19.83;62.03;100964.63;5002841;28;20036;-85
2023/07/29 02:12:47;;;;;;;0.10;0.10;;;;;;;19.76;62.32;100959.06;5001872;28;20494;-84
2023/07/29 02:15:13;;;;;;;0.10;0.10;;;;;;;19.80;61.65;100957.00;5002456;28;20048;-84
2023/07/29 02:17:41;;;;;;;0.10;0.10;;;;;;;19.79;61.58;100949.28;5053012;28;20039;-85
2023/07/29 02:20:07;;;;;;;0.10;0.10;;;;;;;19.67;62.41;100962.44;5019213;28;20029;-84
2023/07/29 02:22:32;;;;;;;0.10;0.10;;;;;;;19.57;63.09;100945.78;5002697;28;20021;-85
2023/07/29 02:24:58;;;;;;;0.20;0.20;;;;;;;19.49;62.48;100933.25;5035049;28;20099;-84
2023/07/29 02:27:26;;;;;;;0.10;0.10;;;;;;;19.51;62.58;100950.66;5035347;28;20037;-85
2023/07/29 02:29:52;;;;;;;0.10;0.10;;;;;;;19.63;62.20;100966.25;5019781;28;20053;-84
2023/07/29 02:32:17;;;;;;;0.15;0.15;;;;;;;19.61;62.24;100968.19;5002307;28;20113;-84
2023/07/29 02:34:43;;;;;;;0.10;0.10;;;;;;;19.60;61.90;100971.78;5018475;28;20040;-84
2023/07/29 02:37:08;;;;;;;0.10;0.10;;;;;;;19.56;62.28;100975.59;5035241;28;20040;-85
2023/07/29 02:39:34;;;;;;;0.10;0.10;;;;;;;19.41;63.01;100979.44;5018668;28;20078;-84
2023/07/29 02:41:59;;;;;;;0.10;0.10;;;;;;;19.22;63.52;100971.38;5001942;28;20021;-84
2023/07/29 02:44:25;;;;;;;0.10;0.10;;;;;;;19.13;64.17;100983.41;5018535;28;20037;-85
2023/07/29 02:46:52;;;;;;;0.10;0.10;;;;;;;19.16;64.19;100991.84;5034813;28;20486;-84
2023/07/29 02:49:17;;;;;;;0.10;0.10;;;;;;;19.17;64.59;100992.69;5018652;28;20109;-85
2023/07/29 02:51:43;;;;;;;0.10;0.10;;;;;;;19.14;64.34;100991.16;5002000;28;20079;-84
2023/07/29 02:54:08;;;;;;;0.10;0.10;;;;;;;19.11;64.70;100988.78;5018713;28;20032;-84
2023/07/29 02:56:34;;;;;;;0.10;0.10;;;;;;;19.07;64.57;100979.47;5034571;28;20487;-84
2023/07/29 02:59:00;;;;;;;0.13;0.13;;;;;;;19.11;65.08;100983.53;5018343;28;20383;-84
2023/07/29 03:01:25;;;;;;;0.10;0.10;;;;;;;19.09;64.62;100984.63;5034579;28;20524;-84
2023/07/29 03:03:51;;;;;;;0.10;0.10;;;;;;;19.14;64.71;100979.84;5001824;28;20029;-84
2023/07/29 03:06:16;;;;;;;0.10;0.10;;;;;;;19.10;64.19;100975.78;5017980;28;20479;-84
2023/07/29 03:08:42;;;;;;;0.10;0.10;;;;;;;19.04;64.61;100979.72;5001790;28;20036;-84
2023/07/29 03:11:13;;;;;;;0.10;0.10;;;;;;;18.92;64.39;100964.97;5001302;28;20438;-84
2023/07/29 03:13:38;;;;;;;0.10;0.10;;;;;;;19.03;64.28;100983.31;5001884;28;20021;-85
2023/07/29 03:16:17;;;;;;;0.10;0.10;;;;;;;18.93;64.25;100950.91;5017727;28;20414;-84
2023/07/29 03:18:42;;;;;;;0.10;0.10;;;;;;;19.16;63.82;100973.50;5017837;28;20033;-85
2023/07/29 03:21:08;;;;;;;0.10;0.10;;;;;;;19.05;63.61;100959.56;5018204;28;20033;-85
2023/07/29 03:23:33;;;;;;;0.10;0.10;;;;;;;19.02;63.96;100960.66;5016976;28;20048;-84
2023/07/29 03:25:59;;;;;;;0.10;0.10;;;;;;;19.08;63.65;100968.06;5001089;28;20033;-84
2023/07/29 03:28:29;;;;;;;0.10;0.10;;;;;;;19.11;64.47;100973.03;5001465;28;20036;-84
2023/07/29 03:30:57;;;;;;;0.10;0.10;;;;;;;19.20;63.97;100979.34;5018167;28;20155;-85
2023/07/29 03:33:24;;;;;;;0.10;0.10;;;;;;;19.12;63.39;100972.09;5017752;28;20032;-84
2023/07/29 03:35:49;;;;;;;0.10;0.10;;;;;;;19.16;63.65;100984.00;5017430;28;20490;-84
2023/07/29 03:38:15;;;;;;;0.10;0.10;;;;;;;19.31;62.93;100994.25;5017606;28;20036;-85
2023/07/29 03:40:41;;;;;;;0.10;0.10;;;;;;;19.02;63.07;100960.66;5000917;28;20037;-84
2023/07/29 03:43:06;;;;;;;0.10;0.10;;;;;;;19.28;63.16;101002.34;5017362;28;20025;-84
2023/07/29 03:45:32;;;;;;;0.10;0.10;;;;;;;19.22;62.90;100997.59;5017499;28;20426;-85
2023/07/29 03:47:57;;;;;;;0.10;0.10;;;;;;;19.18;63.30;101013.56;5000934;28;20124;-84
2023/07/29 03:50:24;;;;;;;0.17;0.17;;;;;;;19.18;63.13;101010.13;5000835;28;20032;-85
2023/07/29 03:52:49;;;;;;;0.10;0.10;;;;;;;19.15;63.15;100998.06;5033917;28;20029;-84
2023/07/29 03:55:15;;;;;;;0.10;0.10;;;;;;;19.22;63.52;101002.84;5000601;28;20032;-85
2023/07/29 03:57:40;;;;;;;0.10;0.10;;;;;;;19.27;62.86;100995.41;5017451;28;20360;-85
2023/07/29 04:00:06;;;;;;;0.10;0.10;;;;;;;19.31;62.85;100994.25;5033422;28;20037;-84
2023/07/29 04:02:32;;;;;;;0.10;0.10;;;;;;;19.13;62.89;100963.25;5016942;28;20048;-84
2023/07/29 04:04:57;;;;;;;0.10;0.10;;;;;;;19.34;62.68;100986.13;5017188;28;20029;-84
2023/07/29 04:07:23;;;;;;;0.10;0.10;;;;;;;19.13;63.43;100971.13;5016940;28;20475;-85
2023/07/29 04:09:49;;;;;;;0.10;0.10;;;;;;;19.34;62.90;100996.59;5016783;28;20454;-84
2023/07/29 04:12:16;;;;;;;0.10;0.10;;;;;;;19.28;63.11;100997.94;5016849;28;20053;-85
2023/07/29 04:14:41;;;;;;;0.10;0.10;;;;;;;19.35;63.32;101016.63;5051124;28;20402;-83
2023/07/29 04:17:07;;;;;;;0.10;0.10;;;;;;;19.39;63.27;101004.97;5016667;28;20487;-85
2023/07/29 04:19:32;;;;;;;0.10;0.10;;;;;;;19.47;63.23;100997.31;5016559;28;20021;-85
2023/07/29 04:21:58;;;;;;;0.10;0.10;;;;;;;19.62;62.62;101001.34;5016277;28;20029;-85
2023/07/29 04:24:24;;;;;;;0.10;0.10;;;;;;;19.68;62.37;100995.59;5016600;28;20049;-85
2023/07/29 04:26:49;;;;;;;0.20;0.20;;;;;;;19.79;62.20;101001.78;5016975;28;20469;-85
2023/07/29 04:29:15;;;;;;;0.10;0.10;;;;;;;19.71;62.65;101003.22;5016700;28;20037;-85
2023/07/29 04:31:40;;;;;;;0.10;0.10;;;;;;;19.71;62.68;100997.13;5016587;28;20059;-84
2023/07/29 04:34:06;;;;;;;0.10;0.10;;;;;;;19.79;62.57;100999.16;5016744;28;20029;-85
2023/07/29 04:36:31;;;;;;;0.10;0.10;;;;;;;19.80;62.54;100991.13;5016116;28;20035;-84
2023/07/29 04:38:57;;;;;;;0.10;0.10;;;;;;;19.84;62.18;100983.84;5016239;28;20029;-84
2023/07/29 04:41:22;;;;;;;0.10;0.10;;;;;;;19.86;61.80;100990.66;5016634;28;20386;-84
2023/07/29 04:43:49;;;;;;;0.10;0.10;;;;;;;19.97;62.24;101008.97;5032943;28;20041;-84
2023/07/29 04:46:15;;;;;;;0.10;0.10;;;;;;;19.95;62.37;101000.38;5000491;28;20029;-85
2023/07/29 04:48:40;;;;;;;0.10;0.10;;;;;;;20.08;61.61;100996.75;4999823;28;20391;-84
2023/07/29 04:51:06;;;;;;;0.10;0.10;;;;;;;20.26;60.98;101006.56;5016066;28;20038;-84
2023/07/29 04:53:31;;;;;;;0.10;0.10;;;;;;;20.22;61.62;101002.50;4999983;28;20040;-85
2023/07/29 04:55:56;;;;;;;0.10;0.10;;;;;;;20.33;61.07;101010.31;5033136;28;20063;-84
2023/07/29 04:58:22;;;;;;;0.10;0.10;;;;;;;20.36;60.81;101008.44;5016281;28;20479;-84
2023/07/29 05:00:47;;;;;;;0.10;0.10;;;;;;;20.41;61.00;101003.59;4999920;28;20032;-84
2023/07/29 05:03:13;;;;;;;0.10;0.10;;;;;;;20.37;61.20;100984.63;4999675;28;20036;-84
2023/07/29 05:05:38;;;;;;;0.10;0.10;;;;;;;20.55;60.75;101000.66;5015943;28;20028;-85
2023/07/29 05:08:04;;;;;;;0.15;0.15;;;;;;;20.69;60.67;101016.09;5032689;28;20584;-85
2023/07/29 05:10:29;;;;;;;0.10;0.10;;;;;;;20.81;59.52;101006.31;5016092;28;20140;-85
2023/07/29 05:12:55;;;;;;;0.10;0.10;;;;;;;20.92;59.16;101003.59;5016363;28;20036;-85
2023/07/29 05:15:20;;;;;;;0.10;0.10;;;;;;;21.05;58.62;101008.66;5032625;28;20178;-85
2023/07/29 05:17:46;;;;;;;0.10;0.10;;;;;;;21.01;58.41;100994.09;5016090;28;20036;-86
2023/07/29 05:20:11;;;;;;;0.10;0.10;;;;;;;21.06;58.40;101018.22;5015826;28;20040;-84
2023/07/29 05:22:37;;;;;;;0.10;0.10;;;;;;;21.11;57.50;101010.72;5016372;28;20447;-84
2023/07/29 05:25:03;;;;;;;0.15;0.15;;;;;;;21.15;58.32;101009.50;5015724;28;20060;-85
2023/07/29 05:27:28;;;;;;;0.10;0.10;;;;;;;21.14;57.47;101002.59;5015598;28;20037;-84
2023/07/29 05:29:54;;;;;;;0.10;0.10;;;;;;;21.20;57.13;100997.59;5050233;28;20036;-84
2023/07/29 05:32:19;;;;;;;0.10;0.10;;;;;;;21.36;56.93;101018.19;5032292;28;20037;-84
2023/07/29 05:34:45;;;;;;;0.10;0.10;;;;;;;21.35;56.63;101011.25;5015619;28;20025;-85
2023/07/29 05:37:10;;;;;;;0.10;0.10;;;;;;;21.49;55.27;101031.09;4999650;28;20021;-85
2023/07/29 05:39:36;;;;;;;0.10;0.10;;;;;;;21.48;55.57;101022.34;5032344;28;20031;-84
2023/07/29 05:42:02;;;;;;;0.10;0.10;;;;;;;21.55;56.25;101033.19;5032518;28;20032;-85
2023/07/29 05:44:28;;;;;;;0.10;0.10;;;;;;;21.63;56.15;101020.19;5032364;28;20049;-85
2023/07/29 05:46:53;;;;;;;0.10;0.10;;;;;;;21.76;55.58;101026.00;5000191;28;20060;-84
2023/07/29 05:49:19;;;;;;;0.10;0.10;;;;;;;21.91;55.37;101029.03;5019223;28;20029;-84
2023/07/29 05:51:44;;;;;;;0.10;0.10;;;;;;;21.94;55.40;101044.59;5019321;28;20047;-84
2023/07/29 05:54:10;;;;;;;0.10;0.10;;;;;;;21.86;55.83;101026.00;5003144;28;20054;-84
2023/07/29 05:56:36;;;;;;;0.10;0.10;;;;;;;21.99;55.60;101042.34;5019396;28;20044;-85
2023/07/29 05:59:01;;;;;;;0.10;0.10;;;;;;;22.07;54.79;101048.78;5019481;28;20033;-84
2023/07/29 06:01:27;;;;;;;0.10;0.10;;;;;;;22.13;55.03;101037.69;5002852;28;20091;-85
2023/07/29 06:03:52;;;;;;;0.10;0.10;;;;;;;22.28;54.60;101047.66;5029460;28;20037;-85
2023/07/29 06:06:18;;;;;;;0.10;0.10;;;;;;;22.41;54.21;101047.34;4999625;28;20033;-84
2023/07/29 06:08:43;;;;;;;0.10;0.10;;;;;;;22.44;54.39;101025.16;5015929;28;20025;-85
2023/07/29 06:11:09;;;;;;;0.10;0.10;;;;;;;22.69;54.01;101034.25;5015680;28;20044;-85
2023/07/29 06:13:34;;;;;;;0.10;0.10;;;;;;;22.81;54.50;101043.63;4999558;28;20025;-85
2023/07/29 06:15:59;;;;;;;0.10;0.10;;;;;;;22.84;54.51;101024.94;5015845;28;20029;-85
2023/07/29 06:18:25;;;;;;;0.10;0.10;;;;;;;22.98;53.71;101029.72;4982873;28;20032;-85
2023/07/29 06:20:51;;;;;;;0.10;0.10;;;;;;;23.02;53.74;101035.56;4999364;28;20411;-85
2023/07/29 06:23:16;;;;;;;0.20;0.20;;;;;;;23.12;53.77;101031.91;4999478;28;20074;-84
2023/07/29 06:25:42;;;;;;;0.10;0.10;;;;;;;23.09;53.81;101026.88;5015505;28;20480;-84
2023/07/29 06:28:09;;;;;;;0.10;0.10;;;;;;;23.26;53.36;101038.47;4999355;28;20041;-84
2023/07/29 06:30:34;;;;;;;0.10;0.10;;;;;;;23.36;52.64;101019.94;4999058;28;20032;-84
2023/07/29 06:33:00;;;;;;;0.10;0.10;;;;;;;23.51;52.16;101031.69;4998731;28;20025;-85
2023/07/29 06:35:25;;;;;;;0.10;0.10;;;;;;;23.58;51.42;101039.81;5031908;28;20022;-85
2023/07/29 06:37:50;;;;;;;0.10;0.10;;;;;;;23.64;50.39;101015.50;5015100;28;20033;-85
2023/07/29 06:40:16;;;;;;;0.20;0.20;;;;;;;23.82;50.82;101031.34;5031835;28;20040;-85
2023/07/29 06:42:41;;;;;;;0.20;0.20;;;;;;;23.78;51.10;101028.16;4982675;28;20486;-84
2023/07/29 06:45:08;;;;;;;0.10;0.10;;;;;;;23.90;52.58;101042.00;5015206;28;20033;-84
2023/07/29 06:47:33;;;;;;;0.10;0.10;;;;;;;23.98;52.66;101034.13;5014801;28;20597;-85
2023/07/29 06:49:58;;;;;;;0.10;0.10;;;;;;;24.02;52.26;101022.28;5015159;28;20034;-85
2023/07/29 06:52:24;;;;;;;0.10;0.10;;;;;;;23.91;53.60;101015.44;5014874;28;20029;-85
2023/07/29 06:54:49;;;;;;;0.10;0.10;;;;;;;24.10;54.00;101040.84;5031736;28;20041;-85
2023/07/29 06:57:15;;;;;;;0.10;0.10;;;;;;;24.13;53.00;101029.97;4982346;28;20025;-85
2023/07/29 06:59:40;;;;;;;0.10;0.10;;;;;;;24.11;52.65;101025.81;4997521;28;20037;-84
2023/07/29 07:02:06;;;;;;;0.10;0.10;;;;;;;24.20;52.79;101035.47;5014564;28;20025;-86
2023/07/29 07:04:32;;;;;;;0.10;0.10;;;;;;;24.33;52.35;101029.81;4982148;28;20033;-85
2023/07/29 07:06:57;;;;;;;0.10;0.10;;;;;;;24.51;51.28;101017.38;5014500;28;20036;-84
2023/07/29 07:09:23;;;;;;;0.10;0.10;;;;;;;24.84;49.93;101024.50;5014838;28;20415;-85
2023/07/29 07:11:48;;;;;;;0.10;0.10;;;;;;;24.82;48.56;101031.78;4998378;28;20026;-84
2023/07/29 07:14:14;;;;;;;0.10;0.10;;;;;;;24.88;49.19;101010.00;4998309;28;20040;-85
2023/07/29 07:16:39;;;;;;;0.20;0.20;;;;;;;25.27;48.17;101028.03;4981756;28;20040;-84
2023/07/29 07:19:05;;;;;;;0.10;0.10;;;;;;;25.35;47.63;101014.78;4981829;28;20033;-85
2023/07/29 07:21:32;;;;;;;0.10;0.10;;;;;;;25.60;46.85;101033.41;5014428;28;20537;-85
2023/07/29 07:23:57;;;;;;;0.15;0.15;;;;;;;25.71;47.17;101030.47;4998090;28;20084;-85
2023/07/29 07:26:23;;;;;;;0.20;0.20;;;;;;;25.80;47.01;101016.25;4998361;28;20029;-85
2023/07/29 07:28:48;;;;;;;0.10;0.10;;;;;;;25.94;46.37;101023.53;5014358;28;20076;-84
2023/07/29 07:31:16;;;;;;;0.20;0.20;;;;;;;26.02;48.04;101017.41;4997689;28;20030;-85
2023/07/29 07:33:41;;;;;;;0.10;0.10;;;;;;;26.11;48.95;101024.34;4998478;28;20044;-84
2023/07/29 07:36:07;;;;;;;0.10;0.10;;;;;;;26.08;49.08;101023.88;4997949;28;20073;-86
2023/07/29 07:38:32;;;;;;;0.10;0.10;;;;;;;26.17;48.54;101025.53;4981475;28;20037;-85
2023/07/29 07:40:58;;;;;;;0.20;0.20;;;;;;;26.28;48.50;101020.72;4997658;28;20076;-85
2023/07/29 07:43:23;;;;;;;0.20;0.20;;;;;;;26.33;48.05;101019.38;4997627;28;20026;-84
2023/07/29 07:45:49;;;;;;;0.20;0.20;;;;;;;26.51;48.09;101022.69;4997321;28;20037;-85
2023/07/29 07:48:16;;;;;;;0.20;0.20;;;;;;;26.56;47.93;101007.94;4997720;28;20036;-85
2023/07/29 07:50:42;;;;;;;0.15;0.15;;;;;;;26.73;47.54;101011.34;4997727;28;20063;-85
2023/07/29 07:53:07;;;;;;;0.13;0.13;;;;;;;26.92;46.49;101014.59;5013705;28;20049;-85
2023/07/29 07:55:32;;;;;;;0.10;0.10;;;;;;;27.05;46.21;101012.28;5013610;28;20040;-85
2023/07/29 07:57:58;;;;;;;0.13;0.13;;;;;;;27.03;46.28;101012.41;4997340;28;20040;-85
2023/07/29 08:00:23;;;;;;;0.10;0.10;;;;;;;27.11;46.09;101014.22;5012978;28;20040;-85
2023/07/29 08:02:49;;;;;;;0.13;0.13;;;;;;;27.22;45.49;100991.75;4997453;28;20029;-86
2023/07/29 08:05:14;;;;;;;0.10;0.10;;;;;;;27.51;45.45;101005.19;4997222;28;20028;-86
2023/07/29 08:07:40;;;;;;;0.20;0.20;;;;;;;27.54;44.45;100994.22;4981192;28;20033;-86
2023/07/29 08:10:06;;;;;;;0.20;0.20;;;;;;;27.68;44.49;101006.75;5013100;28;20026;-85
2023/07/29 08:12:32;;;;;;;0.20;0.20;;;;;;;27.65;43.79;100987.66;5013357;28;20510;-84
2023/07/29 08:14:57;;;;;;;0.20;0.20;;;;;;;27.96;43.56;101009.72;5029700;28;20029;-85
2023/07/29 08:17:23;;;;;;;0.20;0.20;;;;;;;28.12;43.28;101002.56;4996901;28;20041;-85
2023/07/29 08:19:48;;;;;;;0.20;0.20;;;;;;;28.13;43.09;100991.78;4997053;28;20045;-85
2023/07/29 08:22:14;;;;;;;0.20;0.20;;;;;;;28.38;42.92;101013.66;5029827;28;20021;-86
2023/07/29 08:24:39;;;;;;;0.20;0.20;;;;;;;28.51;41.90;101007.69;5029588;28;20113;-84
2023/07/29 08:27:05;;;;;;;0.20;0.20;;;;;;;28.57;41.61;100993.66;4996960;28;20026;-85
2023/07/29 08:29:31;;;;;;;0.20;0.20;;;;;;;28.78;40.90;100999.06;4996598;28;20482;-85
2023/07/29 08:31:56;;;;;;;0.20;0.20;;;;;;;28.88;40.21;100993.47;4997047;28;20040;-84
2023/07/29 08:34:22;;;;;;;0.20;0.20;;;;;;;28.89;40.68;100995.16;5012955;28;20032;-86
2023/07/29 08:36:47;;;;;;;0.10;0.10;;;;;;;28.95;40.33;100996.25;4980736;28;20032;-85
2023/07/29 08:39:13;;;;;;;0.20;0.20;;;;;;;29.08;39.63;100988.41;5013394;28;20036;-85
2023/07/29 08:41:46;;;;;;;0.13;0.13;;;;;;;29.19;39.46;100987.91;4996664;28;20513;-85
2023/07/29 08:44:24;;;;;;;0.20;0.20;;;;;;;29.43;38.54;100971.59;5012875;28;20449;-86
2023/07/29 08:46:53;;;;;;;0.20;0.20;;;;;;;29.60;37.69;100984.72;5013628;28;20045;-85
2023/07/29 08:49:19;;;;;;;0.20;0.20;;;;;;;29.76;36.79;100978.28;5013632;28;20491;-86
2023/07/29 08:51:46;;;;;;;0.20;0.20;;;;;;;29.96;35.99;100971.25;4980325;28;20164;-85
2023/07/29 08:54:12;;;;;;;0.20;0.20;;;;;;;30.13;35.16;100977.16;4996885;28;20026;-85
2023/07/29 08:56:37;;;;;;;0.20;0.20;;;;;;;30.20;34.84;100976.19;5012919;28;20095;-86
2023/07/29 08:59:04;;;;;;;0.20;0.20;;;;;;;30.34;34.32;100971.75;4980116;28;20633;-85
2023/07/29 09:01:30;;;;;;;0.20;0.20;;;;;;;30.45;33.83;100973.88;4996691;28;20063;-85
2023/07/29 09:03:56;;;;;;;0.20;0.20;;;;;;;30.58;33.23;100974.97;4996507;28;20029;-86
2023/07/29 09:06:22;;;;;;;0.20;0.20;;;;;;;30.90;33.24;100976.19;4996517;28;20522;-86
2023/07/29 09:08:49;;;;;;;0.20;0.20;;;;;;;30.97;33.07;100960.97;4980594;28;20021;-85
2023/07/29 09:11:16;;;;;;;0.20;0.20;;;;;;;31.25;32.41;100960.88;4996269;28;20083;-86
2023/07/29 09:13:42;;;;;;;0.20;0.20;;;;;;;31.54;30.94;100967.72;5012544;28;20022;-85
2023/07/29 09:16:08;;;;;;;0.20;0.20;;;;;;;31.56;31.44;100947.78;4996700;28;20123;-86
2023/07/29 09:18:33;;;;;;;0.20;0.20;;;;;;;31.71;31.71;100968.97;4996335;28;20028;-86
2023/07/29 09:21:00;;;;;;;0.20;0.20;;;;;;;31.75;31.16;100956.84;4996320;28;20091;-86
2023/07/29 09:23:25;;;;;;;0.20;0.20;;;;;;;31.89;29.50;100960.38;4999985;28;20025;-86
2023/07/29 09:25:51;;;;;;;0.20;0.20;;;;;;;32.03;28.24;100959.31;5000002;28;20038;-85
2023/07/29 09:28:16;;;;;;;0.20;0.20;;;;;;;32.08;28.83;100950.69;4999796;28;20040;-86
2023/07/29 09:30:44;;;;;;;0.20;0.20;;;;;;;32.19;28.78;100958.88;5000181;28;20036;-86
2023/07/29 09:33:10;;;;;;;0.20;0.20;;;;;;;32.32;29.15;100957.22;5016735;28;20029;-86
2023/07/29 09:35:36;;;;;;;0.20;0.20;;;;;;;32.48;29.39;100956.78;5000370;28;20029;-86
2023/07/29 09:38:02;;;;;;;0.20;0.20;;;;;;;32.12;29.76;100941.19;5000055;28;20079;-85
2023/07/29 09:40:27;;;;;;;0.20;0.20;;;;;;;32.15;29.94;100941.63;5000097;28;20025;-86
2023/07/29 09:42:54;;;;;;;0.20;0.20;;;;;;;32.32;30.21;100941.19;4999801;28;20044;-86
2023/07/29 09:45:26;;;;;;;0.20;0.20;;;;;;;32.50;29.89;100935.97;4999979;28;20021;-86
2023/07/29 09:47:52;;;;;;;0.20;0.20;;;;;;;32.54;29.21;100942.53;5016467;28;20030;-85
2023/07/29 09:50:18;;;;;;;0.20;0.20;;;;;;;32.64;29.99;100945.59;4999585;28;20029;-86
2023/07/29 09:52:43;;;;;;;0.20;0.20;;;;;;;32.51;30.39;100929.56;4999680;28;20041;-86
2023/07/29 09:55:13;;;;;;;0.20;0.20;;;;;;;32.58;30.72;100949.13;5016442;28;20680;-87
2023/07/29 09:57:42;;;;;;;0.20;0.20;;;;;;;32.61;30.00;100937.97;4983418;28;20036;-87
2023/07/29 10:00:10;;;;;;;0.20;0.20;;;;;;;32.66;30.00;100935.50;5000041;28;20072;-86
2023/07/29 10:02:39;;;;;;;0.20;0.20;;;;;;;32.74;29.83;100937.09;5016428;28;20057;-86
2023/07/29 10:05:06;;;;;;;0.20;0.20;;;;;;;32.62;29.95;100933.44;4983919;28;20022;-86
2023/07/29 10:07:31;;;;;;;0.20;0.20;;;;;;;32.56;30.06;100923.59;5016411;28;20041;-86
2023/07/29 10:09:57;;;;;;;0.20;0.20;;;;;;;32.66;29.25;100930.16;4999178;28;20025;-87
2023/07/29 10:12:22;;;;;;;0.20;0.20;;;;;;;32.43;29.18;100937.84;4999242;28;20041;-86
2023/07/29 10:14:48;;;;;;;0.20;0.20;;;;;;;32.49;29.83;100931.66;4999499;28;20029;-86
2023/07/29 10:17:15;;;;;;;0.20;0.20;;;;;;;32.69;28.80;100927.03;4999245;28;20033;-86
2023/07/29 10:19:42;;;;;;;0.20;0.20;;;;;;;32.80;29.31;100923.69;4999510;28;20029;-87
2023/07/29 10:22:08;;;;;;;0.20;0.20;;;;;;;32.79;28.72;100897.09;5016024;28;20056;-86
2023/07/29 10:24:33;;;;;;;0.20;0.20;;;;;;;32.95;28.38;100922.63;4982550;28;20162;-86
2023/07/29 10:27:00;;;;;;;0.28;0.28;;;;;;;32.85;27.75;100924.94;5015167;28;20025;-86
2023/07/29 10:29:38;;;;;;;0.20;0.20;;;;;;;32.83;28.80;100917.09;4998823;28;20044;-87
2023/07/29 10:32:03;;;;;;;0.20;0.20;;;;;;;32.87;28.28;100898.75;5000227;28;20120;-87
2023/07/29 10:34:30;;;;;;;0.30;0.30;;;;;;;33.08;28.38;100901.91;4998818;28;20079;-87
2023/07/29 10:36:55;;;;;;;0.20;0.20;;;;;;;33.36;28.19;100901.53;4982744;28;20030;-87
2023/07/29 10:39:21;;;;;;;0.20;0.20;;;;;;;33.41;28.17;100897.38;4998537;28;20030;-89
2023/07/29 10:42:02;;;;;;;0.20;0.20;;;;;;;33.32;28.75;100884.19;5015221;28;20025;-88
2023/07/29 10:44:41;;;;;;;0.20;0.20;;;;;;;33.25;29.46;100904.91;5015007;28;20060;-86
2023/07/29 10:47:29;;;;;;;0.20;0.20;;;;;;;32.63;30.71;100895.72;5032703;28;20231;-87
2023/07/29 10:49:56;;;;;;;0.20;0.20;;;;;;;32.68;30.15;100913.84;5015313;28;20540;-87
2023/07/29 10:52:34;;;;;;;0.20;0.20;;;;;;;32.69;31.38;100897.56;4982439;28;20064;-86
2023/07/29 10:54:59;;;;;;;0.20;0.20;;;;;;;32.80;29.91;100901.44;5031884;28;20048;-86
2023/07/29 10:57:34;;;;;;;0.20;0.20;;;;;;;33.05;28.71;100904.22;4998641;28;20483;-87
2023/07/29 11:00:00;;;;;;;0.20;0.20;;;;;;;33.08;28.62;100887.69;4998370;28;20159;-86
2023/07/29 11:02:33;;;;;;;0.20;0.20;;;;;;;33.41;27.82;100889.31;4998198;28;20108;-86
2023/07/29 11:04:59;;;;;;;0.30;0.30;;;;;;;33.57;28.44;100892.28;5031187;28;20032;-88
2023/07/29 11:07:28;;;;;;;0.20;0.20;;;;;;;33.78;28.55;100885.69;5014897;28;20392;-87
2023/07/29 11:10:00;;;;;;;0.20;0.20;;;;;;;34.12;28.61;100894.22;4998675;28;20136;-87
2023/07/29 11:12:50;;;;;;;0.20;0.20;;;;;;;34.17;28.32;100892.53;5015160;28;20810;-86
2023/07/29 11:15:23;;;;;;;0.20;0.20;;;;;;;33.85;28.15;100896.38;5016758;28;20032;-88
2023/07/29 11:17:56;;;;;;;0.20;0.20;;;;;;;33.83;27.65;100888.53;5015196;28;20030;-86
2023/07/29 11:20:24;;;;;;;0.20;0.20;;;;;;;33.72;28.64;100883.88;4998193;28;20030;-87
2023/07/29 11:22:49;;;;;;;0.20;0.20;;;;;;;33.71;29.58;100884.94;4997994;28;20112;-86